sensor_id;sensor_type;location;lat;lon;timestamp;temperature;humidity
5061;DHT22;2549;52.128;21.068;2023-05-21T00:01:40;19.70;94.20
5061;DHT22;2549;52.128;21.068;2023-05-21T00:04:08;19.70;94.30
5061;DHT22;2549;52.128;21.068;2023-05-21T00:06:35;19.70;94.10
5061;DHT22;2549;52.128;21.068;2023-05-21T00:09:03;19.70;94.50
5061;DHT22;2549;52.128;21.068;2023-05-21T00:11:31;19.70;94.30
5061;DHT22;2549;52.128;21.068;2023-05-21T00:13:58;19.70;94.20
5061;DHT22;2549;52.128;21.068;2023-05-21T00:16:25;19.60;94.30
5061;DHT22;2549;52.128;21.068;2023-05-21T00:18:52;19.60;94.30
5061;DHT22;2549;52.128;21.068;2023-05-21T00:21:20;19.50;94.40
5061;DHT22;2549;52.128;21.068;2023-05-21T00:23:52;19.50;94.20
5061;DHT22;2549;52.128;21.068;2023-05-21T00:26:22;19.50;94.30
5061;DHT22;2549;52.128;21.068;2023-05-21T00:28:49;19.40;94.10
5061;DHT22;2549;52.128;21.068;2023-05-21T00:31:17;19.40;94.20
5061;DHT22;2549;52.128;21.068;2023-05-21T00:33:44;19.30;94.20
5061;DHT22;2549;52.128;21.068;2023-05-21T00:36:11;19.30;94.30
5061;DHT22;2549;52.128;21.068;2023-05-21T00:38:40;19.30;94.20
5061;DHT22;2549;52.128;21.068;2023-05-21T00:41:09;19.20;94.30
5061;DHT22;2549;52.128;21.068;2023-05-21T00:43:37;19.10;94.30
5061;DHT22;2549;52.128;21.068;2023-05-21T00:46:10;19.10;94.20
5061;DHT22;2549;52.128;21.068;2023-05-21T00:48:37;19.10;94.30
5061;DHT22;2549;52.128;21.068;2023-05-21T00:51:05;19.00;94.20
5061;DHT22;2549;52.128;21.068;2023-05-21T00:53:32;19.00;94.20
5061;DHT22;2549;52.128;21.068;2023-05-21T00:56:02;19.00;94.10
5061;DHT22;2549;52.128;21.068;2023-05-21T00:58:29;19.00;94.10
5061;DHT22;2549;52.128;21.068;2023-05-21T01:00:59;19.00;94.10
5061;DHT22;2549;52.128;21.068;2023-05-21T01:03:34;19.00;94.20
5061;DHT22;2549;52.128;21.068;2023-05-21T01:06:05;18.90;94.20
5061;DHT22;2549;52.128;21.068;2023-05-21T01:08:32;18.90;94.30
5061;DHT22;2549;52.128;21.068;2023-05-21T01:11:02;18.90;94.30
5061;DHT22;2549;52.128;21.068;2023-05-21T01:13:30;18.90;94.30
5061;DHT22;2549;52.128;21.068;2023-05-21T01:15:58;18.90;94.30
5061;DHT22;2549;52.128;21.068;2023-05-21T01:18:26;18.90;94.30
5061;DHT22;2549;52.128;21.068;2023-05-21T01:20:54;18.90;94.30
5061;DHT22;2549;52.128;21.068;2023-05-21T01:23:21;18.90;94.30
5061;DHT22;2549;52.128;21.068;2023-05-21T01:25:48;18.90;94.40
5061;DHT22;2549;52.128;21.068;2023-05-21T01:28:14;18.90;94.30
5061;DHT22;2549;52.128;21.068;2023-05-21T01:30:42;18.80;94.40
5061;DHT22;2549;52.128;21.068;2023-05-21T01:33:24;18.80;94.50
5061;DHT22;2549;52.128;21.068;2023-05-21T01:36:12;18.80;94.50
5061;DHT22;2549;52.128;21.068;2023-05-21T01:38:46;18.70;94.40
5061;DHT22;2549;52.128;21.068;2023-05-21T01:41:17;18.60;94.40
5061;DHT22;2549;52.128;21.068;2023-05-21T01:43:45;18.60;94.50
5061;DHT22;2549;52.128;21.068;2023-05-21T01:46:19;18.60;94.80
5061;DHT22;2549;52.128;21.068;2023-05-21T01:48:49;18.60;94.70
5061;DHT22;2549;52.128;21.068;2023-05-21T01:51:16;18.50;94.80
5061;DHT22;2549;52.128;21.068;2023-05-21T01:53:43;18.50;95.00
5061;DHT22;2549;52.128;21.068;2023-05-21T01:56:10;18.50;95.00
5061;DHT22;2549;52.128;21.068;2023-05-21T01:58:37;18.50;95.00
5061;DHT22;2549;52.128;21.068;2023-05-21T02:01:04;18.50;95.00
5061;DHT22;2549;52.128;21.068;2023-05-21T02:03:30;18.40;95.10
5061;DHT22;2549;52.128;21.068;2023-05-21T02:05:57;18.40;95.00
5061;DHT22;2549;52.128;21.068;2023-05-21T02:08:24;18.40;95.10
5061;DHT22;2549;52.128;21.068;2023-05-21T02:10:53;18.30;95.10
5061;DHT22;2549;52.128;21.068;2023-05-21T02:13:20;18.30;95.30
5061;DHT22;2549;52.128;21.068;2023-05-21T02:15:51;18.20;95.30
5061;DHT22;2549;52.128;21.068;2023-05-21T02:18:20;18.20;95.40
5061;DHT22;2549;52.128;21.068;2023-05-21T02:20:47;18.10;95.40
5061;DHT22;2549;52.128;21.068;2023-05-21T02:23:14;18.10;95.40
5061;DHT22;2549;52.128;21.068;2023-05-21T02:25:41;18.10;95.50
5061;DHT22;2549;52.128;21.068;2023-05-21T02:28:08;18.00;95.40
5061;DHT22;2549;52.128;21.068;2023-05-21T02:30:35;18.00;95.50
5061;DHT22;2549;52.128;21.068;2023-05-21T02:33:02;17.90;95.60
5061;DHT22;2549;52.128;21.068;2023-05-21T02:35:29;17.90;95.50
5061;DHT22;2549;52.128;21.068;2023-05-21T02:37:56;17.90;95.60
5061;DHT22;2549;52.128;21.068;2023-05-21T02:40:25;17.90;95.70
5061;DHT22;2549;52.128;21.068;2023-05-21T02:42:52;17.90;95.70
5061;DHT22;2549;52.128;21.068;2023-05-21T02:45:19;17.80;95.60
5061;DHT22;2549;52.128;21.068;2023-05-21T02:47:46;17.80;95.70
5061;DHT22;2549;52.128;21.068;2023-05-21T02:50:13;17.80;95.70
5061;DHT22;2549;52.128;21.068;2023-05-21T02:52:40;17.80;95.70
5061;DHT22;2549;52.128;21.068;2023-05-21T02:55:07;17.80;95.80
5061;DHT22;2549;52.128;21.068;2023-05-21T02:57:34;17.70;95.80
5061;DHT22;2549;52.128;21.068;2023-05-21T03:00:02;17.70;95.90
5061;DHT22;2549;52.128;21.068;2023-05-21T03:02:29;17.70;95.90
5061;DHT22;2549;52.128;21.068;2023-05-21T03:04:58;17.60;95.90
5061;DHT22;2549;52.128;21.068;2023-05-21T03:07:24;17.60;96.00
5061;DHT22;2549;52.128;21.068;2023-05-21T03:09:51;17.60;96.00
5061;DHT22;2549;52.128;21.068;2023-05-21T03:12:18;17.60;96.00
5061;DHT22;2549;52.128;21.068;2023-05-21T03:14:47;17.60;96.10
5061;DHT22;2549;52.128;21.068;2023-05-21T03:17:14;17.50;96.40
5061;DHT22;2549;52.128;21.068;2023-05-21T03:19:44;17.50;96.10
5061;DHT22;2549;52.128;21.068;2023-05-21T03:22:11;17.50;96.10
5061;DHT22;2549;52.128;21.068;2023-05-21T03:24:38;17.50;96.30
5061;DHT22;2549;52.128;21.068;2023-05-21T03:27:05;17.50;96.40
5061;DHT22;2549;52.128;21.068;2023-05-21T03:29:33;17.50;96.20
5061;DHT22;2549;52.128;21.068;2023-05-21T03:32:00;17.50;96.20
5061;DHT22;2549;52.128;21.068;2023-05-21T03:34:27;17.50;96.00
5061;DHT22;2549;52.128;21.068;2023-05-21T03:36:54;17.50;95.60
5061;DHT22;2549;52.128;21.068;2023-05-21T03:39:21;17.50;95.30
5061;DHT22;2549;52.128;21.068;2023-05-21T03:41:48;17.50;95.30
5061;DHT22;2549;52.128;21.068;2023-05-21T03:44:15;17.50;95.10
5061;DHT22;2549;52.128;21.068;2023-05-21T03:46:42;17.50;95.10
5061;DHT22;2549;52.128;21.068;2023-05-21T03:49:11;17.50;94.90
5061;DHT22;2549;52.128;21.068;2023-05-21T03:51:38;17.50;95.00
5061;DHT22;2549;52.128;21.068;2023-05-21T03:54:05;17.60;94.70
5061;DHT22;2549;52.128;21.068;2023-05-21T03:56:32;17.50;94.40
5061;DHT22;2549;52.128;21.068;2023-05-21T03:58:58;17.50;94.40
5061;DHT22;2549;52.128;21.068;2023-05-21T04:01:26;17.60;94.50
5061;DHT22;2549;52.128;21.068;2023-05-21T04:03:54;17.60;94.30
5061;DHT22;2549;52.128;21.068;2023-05-21T04:06:21;17.50;94.30
5061;DHT22;2549;52.128;21.068;2023-05-21T04:08:48;17.50;94.10
5061;DHT22;2549;52.128;21.068;2023-05-21T04:11:15;17.50;94.20
5061;DHT22;2549;52.128;21.068;2023-05-21T04:13:42;17.40;94.30
5061;DHT22;2549;52.128;21.068;2023-05-21T04:16:09;17.40;94.20
5061;DHT22;2549;52.128;21.068;2023-05-21T04:18:40;17.40;94.20
5061;DHT22;2549;52.128;21.068;2023-05-21T04:21:11;17.40;94.00
5061;DHT22;2549;52.128;21.068;2023-05-21T04:23:38;17.40;94.00
5061;DHT22;2549;52.128;21.068;2023-05-21T04:26:05;17.40;93.80
5061;DHT22;2549;52.128;21.068;2023-05-21T04:28:33;17.50;93.90
5061;DHT22;2549;52.128;21.068;2023-05-21T04:31:00;17.50;94.10
5061;DHT22;2549;52.128;21.068;2023-05-21T04:33:27;17.50;93.90
5061;DHT22;2549;52.128;21.068;2023-05-21T04:35:55;17.60;93.90
5061;DHT22;2549;52.128;21.068;2023-05-21T04:38:23;17.60;94.10
5061;DHT22;2549;52.128;21.068;2023-05-21T04:40:51;17.60;94.10
5061;DHT22;2549;52.128;21.068;2023-05-21T04:43:19;17.70;94.10
5061;DHT22;2549;52.128;21.068;2023-05-21T04:45:52;17.70;94.10
5061;DHT22;2549;52.128;21.068;2023-05-21T04:48:21;17.80;94.00
5061;DHT22;2549;52.128;21.068;2023-05-21T04:50:53;17.80;94.10
5061;DHT22;2549;52.128;21.068;2023-05-21T04:53:22;17.80;94.20
5061;DHT22;2549;52.128;21.068;2023-05-21T04:55:49;17.90;94.20
5061;DHT22;2549;52.128;21.068;2023-05-21T04:58:16;17.90;94.30
5061;DHT22;2549;52.128;21.068;2023-05-21T05:00:44;17.90;94.20
5061;DHT22;2549;52.128;21.068;2023-05-21T05:03:12;18.00;94.30
5061;DHT22;2549;52.128;21.068;2023-05-21T05:05:40;18.10;94.50
5061;DHT22;2549;52.128;21.068;2023-05-21T05:08:07;18.20;94.30
5061;DHT22;2549;52.128;21.068;2023-05-21T05:10:34;18.20;93.70
5061;DHT22;2549;52.128;21.068;2023-05-21T05:13:01;18.30;93.50
5061;DHT22;2549;52.128;21.068;2023-05-21T05:15:28;18.30;93.70
5061;DHT22;2549;52.128;21.068;2023-05-21T05:17:55;18.40;93.80
5061;DHT22;2549;52.128;21.068;2023-05-21T05:20:22;18.40;93.70
5061;DHT22;2549;52.128;21.068;2023-05-21T05:22:49;18.40;93.20
5061;DHT22;2549;52.128;21.068;2023-05-21T05:25:16;18.50;93.50
5061;DHT22;2549;52.128;21.068;2023-05-21T05:27:43;18.50;93.50
5061;DHT22;2549;52.128;21.068;2023-05-21T05:30:11;18.60;93.10
5061;DHT22;2549;52.128;21.068;2023-05-21T05:32:38;18.70;93.20
5061;DHT22;2549;52.128;21.068;2023-05-21T05:35:05;18.70;93.10
5061;DHT22;2549;52.128;21.068;2023-05-21T05:37:32;18.80;93.30
5061;DHT22;2549;52.128;21.068;2023-05-21T05:39:59;18.80;93.20
5061;DHT22;2549;52.128;21.068;2023-05-21T05:42:26;18.90;93.00
5061;DHT22;2549;52.128;21.068;2023-05-21T05:44:53;18.90;93.00
5061;DHT22;2549;52.128;21.068;2023-05-21T05:47:20;18.90;92.90
5061;DHT22;2549;52.128;21.068;2023-05-21T05:49:47;18.90;92.90
5061;DHT22;2549;52.128;21.068;2023-05-21T05:52:14;19.00;92.90
5061;DHT22;2549;52.128;21.068;2023-05-21T05:54:41;19.00;92.70
5061;DHT22;2549;52.128;21.068;2023-05-21T05:57:08;19.00;92.90
5061;DHT22;2549;52.128;21.068;2023-05-21T05:59:35;19.10;92.90
5061;DHT22;2549;52.128;21.068;2023-05-21T06:02:02;19.10;92.80
5061;DHT22;2549;52.128;21.068;2023-05-21T06:04:29;19.10;92.70
5061;DHT22;2549;52.128;21.068;2023-05-21T06:06:56;19.20;92.70
5061;DHT22;2549;52.128;21.068;2023-05-21T06:09:24;19.20;92.40
5061;DHT22;2549;52.128;21.068;2023-05-21T06:11:51;19.30;92.70
5061;DHT22;2549;52.128;21.068;2023-05-21T06:14:18;19.30;92.80
5061;DHT22;2549;52.128;21.068;2023-05-21T06:16:44;19.30;92.80
5061;DHT22;2549;52.128;21.068;2023-05-21T06:19:11;19.30;93.20
5061;DHT22;2549;52.128;21.068;2023-05-21T06:21:38;19.40;93.20
5061;DHT22;2549;52.128;21.068;2023-05-21T06:24:05;19.40;93.20
5061;DHT22;2549;52.128;21.068;2023-05-21T06:26:32;19.40;92.50
5061;DHT22;2549;52.128;21.068;2023-05-21T06:28:59;19.40;92.80
5061;DHT22;2549;52.128;21.068;2023-05-21T06:31:26;19.50;92.70
5061;DHT22;2549;52.128;21.068;2023-05-21T06:33:53;19.50;92.50
5061;DHT22;2549;52.128;21.068;2023-05-21T06:36:20;19.60;92.50
5061;DHT22;2549;52.128;21.068;2023-05-21T06:38:47;19.60;92.10
5061;DHT22;2549;52.128;21.068;2023-05-21T06:41:14;19.60;92.30
5061;DHT22;2549;52.128;21.068;2023-05-21T06:43:41;19.70;92.80
5061;DHT22;2549;52.128;21.068;2023-05-21T06:46:08;19.70;92.40
5061;DHT22;2549;52.128;21.068;2023-05-21T06:48:35;19.80;92.40
5061;DHT22;2549;52.128;21.068;2023-05-21T06:51:02;19.90;91.80
5061;DHT22;2549;52.128;21.068;2023-05-21T06:53:29;19.90;91.90
5061;DHT22;2549;52.128;21.068;2023-05-21T06:55:56;19.90;92.10
5061;DHT22;2549;52.128;21.068;2023-05-21T06:58:22;19.90;92.00
5061;DHT22;2549;52.128;21.068;2023-05-21T07:00:49;20.00;91.60
5061;DHT22;2549;52.128;21.068;2023-05-21T07:03:16;20.00;91.20
5061;DHT22;2549;52.128;21.068;2023-05-21T07:05:46;20.10;91.40
5061;DHT22;2549;52.128;21.068;2023-05-21T07:08:13;20.10;91.20
5061;DHT22;2549;52.128;21.068;2023-05-21T07:10:40;20.20;91.10
5061;DHT22;2549;52.128;21.068;2023-05-21T07:13:07;20.20;90.80
5061;DHT22;2549;52.128;21.068;2023-05-21T07:15:34;20.30;90.60
5061;DHT22;2549;52.128;21.068;2023-05-21T07:18:02;20.30;90.40
5061;DHT22;2549;52.128;21.068;2023-05-21T07:20:29;20.40;90.40
5061;DHT22;2549;52.128;21.068;2023-05-21T07:22:56;20.50;90.30
5061;DHT22;2549;52.128;21.068;2023-05-21T07:25:23;20.50;90.10
5061;DHT22;2549;52.128;21.068;2023-05-21T07:27:50;20.60;90.30
5061;DHT22;2549;52.128;21.068;2023-05-21T07:30:18;20.60;88.70
5061;DHT22;2549;52.128;21.068;2023-05-21T07:32:45;20.60;87.30
5061;DHT22;2549;52.128;21.068;2023-05-21T07:35:12;20.70;88.20
5061;DHT22;2549;52.128;21.068;2023-05-21T07:37:39;20.70;89.50
5061;DHT22;2549;52.128;21.068;2023-05-21T07:40:06;20.80;89.50
5061;DHT22;2549;52.128;21.068;2023-05-21T07:42:33;20.80;89.50
5061;DHT22;2549;52.128;21.068;2023-05-21T07:45:02;20.80;89.00
5061;DHT22;2549;52.128;21.068;2023-05-21T07:47:29;20.90;86.50
5061;DHT22;2549;52.128;21.068;2023-05-21T07:49:56;21.00;86.20
5061;DHT22;2549;52.128;21.068;2023-05-21T07:52:24;21.10;87.30
5061;DHT22;2549;52.128;21.068;2023-05-21T07:54:51;21.10;87.40
5061;DHT22;2549;52.128;21.068;2023-05-21T07:57:18;21.10;86.50
5061;DHT22;2549;52.128;21.068;2023-05-21T07:59:45;21.10;86.30
5061;DHT22;2549;52.128;21.068;2023-05-21T08:02:12;21.20;85.90
5061;DHT22;2549;52.128;21.068;2023-05-21T08:04:38;21.20;86.50
5061;DHT22;2549;52.128;21.068;2023-05-21T08:07:07;21.20;85.00
5061;DHT22;2549;52.128;21.068;2023-05-21T08:09:35;21.30;85.10
5061;DHT22;2549;52.128;21.068;2023-05-21T08:12:02;21.30;85.80
5061;DHT22;2549;52.128;21.068;2023-05-21T08:14:30;21.30;86.10
5061;DHT22;2549;52.128;21.068;2023-05-21T08:16:57;21.40;85.70
5061;DHT22;2549;52.128;21.068;2023-05-21T08:19:24;21.40;86.50
5061;DHT22;2549;52.128;21.068;2023-05-21T08:21:51;21.50;83.40
5061;DHT22;2549;52.128;21.068;2023-05-21T08:24:18;21.50;83.50
5061;DHT22;2549;52.128;21.068;2023-05-21T08:26:45;21.60;81.00
5061;DHT22;2549;52.128;21.068;2023-05-21T08:29:13;21.60;82.80
5061;DHT22;2549;52.128;21.068;2023-05-21T08:31:39;21.60;81.00
5061;DHT22;2549;52.128;21.068;2023-05-21T08:34:07;21.70;80.30
5061;DHT22;2549;52.128;21.068;2023-05-21T08:36:34;21.80;81.00
5061;DHT22;2549;52.128;21.068;2023-05-21T08:39:01;21.80;82.90
5061;DHT22;2549;52.128;21.068;2023-05-21T08:41:30;21.80;82.70
5061;DHT22;2549;52.128;21.068;2023-05-21T08:44:00;21.80;81.60
5061;DHT22;2549;52.128;21.068;2023-05-21T08:46:31;21.80;78.60
5061;DHT22;2549;52.128;21.068;2023-05-21T08:49:01;21.90;77.00
5061;DHT22;2549;52.128;21.068;2023-05-21T08:51:29;22.00;77.30
5061;DHT22;2549;52.128;21.068;2023-05-21T08:53:58;22.00;78.00
5061;DHT22;2549;52.128;21.068;2023-05-21T08:56:27;22.00;77.70
5061;DHT22;2549;52.128;21.068;2023-05-21T08:58:58;22.10;78.00
5061;DHT22;2549;52.128;21.068;2023-05-21T09:01:25;22.10;78.40
5061;DHT22;2549;52.128;21.068;2023-05-21T09:03:55;22.10;77.10
5061;DHT22;2549;52.128;21.068;2023-05-21T09:06:39;22.20;77.70
5061;DHT22;2549;52.128;21.068;2023-05-21T09:09:16;22.20;76.00
5061;DHT22;2549;52.128;21.068;2023-05-21T09:11:46;22.20;76.20
5061;DHT22;2549;52.128;21.068;2023-05-21T09:14:14;22.20;76.30
5061;DHT22;2549;52.128;21.068;2023-05-21T09:16:43;22.20;74.20
5061;DHT22;2549;52.128;21.068;2023-05-21T09:19:11;22.30;73.70
5061;DHT22;2549;52.128;21.068;2023-05-21T09:21:38;22.30;74.40
5061;DHT22;2549;52.128;21.068;2023-05-21T09:24:05;22.30;75.40
5061;DHT22;2549;52.128;21.068;2023-05-21T09:26:35;22.40;77.00
5061;DHT22;2549;52.128;21.068;2023-05-21T09:29:01;22.40;76.70
5061;DHT22;2549;52.128;21.068;2023-05-21T09:31:29;22.40;77.00
5061;DHT22;2549;52.128;21.068;2023-05-21T09:33:56;22.40;74.90
5061;DHT22;2549;52.128;21.068;2023-05-21T09:36:23;22.50;73.40
5061;DHT22;2549;52.128;21.068;2023-05-21T09:38:50;22.50;75.40
5061;DHT22;2549;52.128;21.068;2023-05-21T09:41:18;22.50;75.30
5061;DHT22;2549;52.128;21.068;2023-05-21T09:43:48;22.50;75.10
5061;DHT22;2549;52.128;21.068;2023-05-21T09:46:15;22.60;75.90
5061;DHT22;2549;52.128;21.068;2023-05-21T09:48:46;22.60;76.20
5061;DHT22;2549;52.128;21.068;2023-05-21T09:51:17;22.60;76.10
5061;DHT22;2549;52.128;21.068;2023-05-21T09:53:55;22.60;74.70
5061;DHT22;2549;52.128;21.068;2023-05-21T09:56:25;22.60;73.50
5061;DHT22;2549;52.128;21.068;2023-05-21T09:58:57;22.70;75.20
5061;DHT22;2549;52.128;21.068;2023-05-21T10:01:26;22.70;75.00
5061;DHT22;2549;52.128;21.068;2023-05-21T10:03:56;22.80;76.00
5061;DHT22;2549;52.128;21.068;2023-05-21T10:06:27;22.70;74.10
5061;DHT22;2549;52.128;21.068;2023-05-21T10:08:56;22.80;74.70
5061;DHT22;2549;52.128;21.068;2023-05-21T10:11:25;22.90;74.20
5061;DHT22;2549;52.128;21.068;2023-05-21T10:14:06;22.90;73.40
5061;DHT22;2549;52.128;21.068;2023-05-21T10:16:34;23.00;72.60
5061;DHT22;2549;52.128;21.068;2023-05-21T10:19:02;23.00;72.50
5061;DHT22;2549;52.128;21.068;2023-05-21T10:21:31;23.00;73.10
5061;DHT22;2549;52.128;21.068;2023-05-21T10:24:01;23.10;72.90
5061;DHT22;2549;52.128;21.068;2023-05-21T10:26:29;23.10;74.50
5061;DHT22;2549;52.128;21.068;2023-05-21T10:28:56;23.00;74.40
5061;DHT22;2549;52.128;21.068;2023-05-21T10:31:26;23.10;73.60
5061;DHT22;2549;52.128;21.068;2023-05-21T10:33:54;23.10;73.50
5061;DHT22;2549;52.128;21.068;2023-05-21T10:36:23;23.10;71.00
5061;DHT22;2549;52.128;21.068;2023-05-21T10:38:51;23.10;74.00
5061;DHT22;2549;52.128;21.068;2023-05-21T10:41:19;23.10;71.20
5061;DHT22;2549;52.128;21.068;2023-05-21T10:48:59;23.10;71.20
5061;DHT22;2549;52.128;21.068;2023-05-21T11:00:10;23.20;72.60
5061;DHT22;2549;52.128;21.068;2023-05-21T11:02:38;23.30;73.50
5061;DHT22;2549;52.128;21.068;2023-05-21T11:05:06;23.30;72.10
5061;DHT22;2549;52.128;21.068;2023-05-21T11:07:52;23.40;74.90
5061;DHT22;2549;52.128;21.068;2023-05-21T11:10:39;23.40;75.30
5061;DHT22;2549;52.128;21.068;2023-05-21T11:13:13;23.40;74.20
5061;DHT22;2549;52.128;21.068;2023-05-21T11:21:11;23.40;73.30
5061;DHT22;2549;52.128;21.068;2023-05-21T11:23:53;23.50;73.60
5061;DHT22;2549;52.128;21.068;2023-05-21T11:26:26;23.50;73.20
5061;DHT22;2549;52.128;21.068;2023-05-21T11:29:06;23.60;72.20
5061;DHT22;2549;52.128;21.068;2023-05-21T11:31:34;23.60;72.90
5061;DHT22;2549;52.128;21.068;2023-05-21T11:34:18;23.60;73.00
5061;DHT22;2549;52.128;21.068;2023-05-21T11:36:47;23.50;72.80
5061;DHT22;2549;52.128;21.068;2023-05-21T11:39:16;23.50;73.40
5061;DHT22;2549;52.128;21.068;2023-05-21T11:41:58;23.60;72.60
5061;DHT22;2549;52.128;21.068;2023-05-21T11:44:48;23.60;72.00
5061;DHT22;2549;52.128;21.068;2023-05-21T11:47:16;23.60;72.60
5061;DHT22;2549;52.128;21.068;2023-05-21T11:49:44;23.60;73.90
5061;DHT22;2549;52.128;21.068;2023-05-21T11:52:13;23.60;72.70
5061;DHT22;2549;52.128;21.068;2023-05-21T11:54:45;23.60;71.50
5061;DHT22;2549;52.128;21.068;2023-05-21T11:57:14;23.60;70.40
5061;DHT22;2549;52.128;21.068;2023-05-21T11:59:43;23.60;71.90
5061;DHT22;2549;52.128;21.068;2023-05-21T12:02:18;23.60;71.70
5061;DHT22;2549;52.128;21.068;2023-05-21T12:04:49;23.70;72.30
5061;DHT22;2549;52.128;21.068;2023-05-21T12:07:18;23.70;72.20
5061;DHT22;2549;52.128;21.068;2023-05-21T12:09:49;23.70;71.10
5061;DHT22;2549;52.128;21.068;2023-05-21T12:12:19;23.70;69.80
5061;DHT22;2549;52.128;21.068;2023-05-21T12:14:52;23.80;69.70
5061;DHT22;2549;52.128;21.068;2023-05-21T12:17:21;23.80;70.20
5061;DHT22;2549;52.128;21.068;2023-05-21T12:19:50;23.90;68.60
5061;DHT22;2549;52.128;21.068;2023-05-21T12:22:18;23.90;69.50
5061;DHT22;2549;52.128;21.068;2023-05-21T12:24:45;23.90;67.20
5061;DHT22;2549;52.128;21.068;2023-05-21T12:27:14;23.90;67.90
5061;DHT22;2549;52.128;21.068;2023-05-21T12:29:45;23.80;69.30
5061;DHT22;2549;52.128;21.068;2023-05-21T12:32:13;24.00;70.60
5061;DHT22;2549;52.128;21.068;2023-05-21T12:34:42;24.00;70.80
5061;DHT22;2549;52.128;21.068;2023-05-21T12:37:22;24.00;70.80
5061;DHT22;2549;52.128;21.068;2023-05-21T12:39:53;24.00;70.80
5061;DHT22;2549;52.128;21.068;2023-05-21T12:42:31;24.00;67.70
5061;DHT22;2549;52.128;21.068;2023-05-21T12:45:07;24.00;66.20
5061;DHT22;2549;52.128;21.068;2023-05-21T12:47:35;24.10;66.90
5061;DHT22;2549;52.128;21.068;2023-05-21T12:50:04;24.10;66.80
5061;DHT22;2549;52.128;21.068;2023-05-21T12:52:33;24.10;68.40
5061;DHT22;2549;52.128;21.068;2023-05-21T12:55:00;24.20;68.70
5061;DHT22;2549;52.128;21.068;2023-05-21T12:57:35;24.20;67.70
5061;DHT22;2549;52.128;21.068;2023-05-21T13:00:03;24.20;69.00
5061;DHT22;2549;52.128;21.068;2023-05-21T13:02:39;24.20;65.70
5061;DHT22;2549;52.128;21.068;2023-05-21T13:05:14;24.20;64.10
5061;DHT22;2549;52.128;21.068;2023-05-21T13:07:42;24.20;64.20
5061;DHT22;2549;52.128;21.068;2023-05-21T13:10:13;24.30;64.80
5061;DHT22;2549;52.128;21.068;2023-05-21T13:12:41;24.40;63.80
5061;DHT22;2549;52.128;21.068;2023-05-21T13:15:10;24.40;64.50
5061;DHT22;2549;52.128;21.068;2023-05-21T13:17:37;24.40;63.10
5061;DHT22;2549;52.128;21.068;2023-05-21T13:20:14;24.40;63.50
5061;DHT22;2549;52.128;21.068;2023-05-21T13:22:43;24.40;63.50
5061;DHT22;2549;52.128;21.068;2023-05-21T13:25:15;24.50;64.50
5061;DHT22;2549;52.128;21.068;2023-05-21T13:27:43;24.50;64.40
5061;DHT22;2549;52.128;21.068;2023-05-21T13:30:10;24.50;65.10
5061;DHT22;2549;52.128;21.068;2023-05-21T13:32:38;24.50;65.00
5061;DHT22;2549;52.128;21.068;2023-05-21T13:35:05;24.60;63.70
5061;DHT22;2549;52.128;21.068;2023-05-21T13:37:33;24.60;64.70
5061;DHT22;2549;52.128;21.068;2023-05-21T13:40:07;24.60;63.60
5061;DHT22;2549;52.128;21.068;2023-05-21T13:42:37;24.60;62.80
5061;DHT22;2549;52.128;21.068;2023-05-21T13:45:08;24.60;62.30
5061;DHT22;2549;52.128;21.068;2023-05-21T13:47:36;24.60;63.00
5061;DHT22;2549;52.128;21.068;2023-05-21T13:50:06;24.60;64.40
5061;DHT22;2549;52.128;21.068;2023-05-21T13:52:34;24.60;65.60
5061;DHT22;2549;52.128;21.068;2023-05-21T13:55:01;24.70;63.60
5061;DHT22;2549;52.128;21.068;2023-05-21T13:57:28;24.70;63.10
5061;DHT22;2549;52.128;21.068;2023-05-21T13:59:57;24.70;63.30
5061;DHT22;2549;52.128;21.068;2023-05-21T14:02:24;24.70;63.60
5061;DHT22;2549;52.128;21.068;2023-05-21T14:04:52;24.70;63.80
5061;DHT22;2549;52.128;21.068;2023-05-21T14:07:19;24.80;64.20
5061;DHT22;2549;52.128;21.068;2023-05-21T14:09:47;24.80;63.30
5061;DHT22;2549;52.128;21.068;2023-05-21T14:12:13;24.70;62.90
5061;DHT22;2549;52.128;21.068;2023-05-21T14:14:41;24.70;62.50
5061;DHT22;2549;52.128;21.068;2023-05-21T14:17:08;24.80;62.80
5061;DHT22;2549;52.128;21.068;2023-05-21T14:19:35;24.80;62.90
5061;DHT22;2549;52.128;21.068;2023-05-21T14:22:01;24.80;62.20
5061;DHT22;2549;52.128;21.068;2023-05-21T14:24:28;24.80;62.40
5061;DHT22;2549;52.128;21.068;2023-05-21T14:26:55;24.80;59.80
5061;DHT22;2549;52.128;21.068;2023-05-21T14:29:22;24.80;60.60
5061;DHT22;2549;52.128;21.068;2023-05-21T14:31:49;24.80;58.90
5061;DHT22;2549;52.128;21.068;2023-05-21T14:34:16;24.90;57.40
5061;DHT22;2549;52.128;21.068;2023-05-21T14:36:43;24.90;56.20
5061;DHT22;2549;52.128;21.068;2023-05-21T14:39:10;24.90;56.00
5061;DHT22;2549;52.128;21.068;2023-05-21T14:41:38;24.90;57.20
5061;DHT22;2549;52.128;21.068;2023-05-21T14:44:05;24.90;57.70
5061;DHT22;2549;52.128;21.068;2023-05-21T14:46:32;25.00;58.90
5061;DHT22;2549;52.128;21.068;2023-05-21T14:48:59;25.00;59.00
5061;DHT22;2549;52.128;21.068;2023-05-21T14:51:26;25.00;57.60
5061;DHT22;2549;52.128;21.068;2023-05-21T14:53:53;24.90;56.70
5061;DHT22;2549;52.128;21.068;2023-05-21T14:56:21;24.90;57.20
5061;DHT22;2549;52.128;21.068;2023-05-21T14:58:50;24.90;58.20
5061;DHT22;2549;52.128;21.068;2023-05-21T15:01:17;24.90;58.90
5061;DHT22;2549;52.128;21.068;2023-05-21T15:03:44;24.80;58.80
5061;DHT22;2549;52.128;21.068;2023-05-21T15:06:12;24.80;59.70
5061;DHT22;2549;52.128;21.068;2023-05-21T15:08:39;24.80;59.50
5061;DHT22;2549;52.128;21.068;2023-05-21T15:11:06;24.70;60.00
5061;DHT22;2549;52.128;21.068;2023-05-21T15:13:35;24.70;59.80
5061;DHT22;2549;52.128;21.068;2023-05-21T15:16:02;24.70;60.00
5061;DHT22;2549;52.128;21.068;2023-05-21T15:18:29;24.70;59.90
5061;DHT22;2549;52.128;21.068;2023-05-21T15:20:56;24.60;59.50
5061;DHT22;2549;52.128;21.068;2023-05-21T15:23:24;24.60;58.70
5061;DHT22;2549;52.128;21.068;2023-05-21T15:25:51;24.70;59.10
5061;DHT22;2549;52.128;21.068;2023-05-21T15:28:18;24.70;59.20
5061;DHT22;2549;52.128;21.068;2023-05-21T15:30:45;24.70;59.70
5061;DHT22;2549;52.128;21.068;2023-05-21T15:33:12;24.70;58.80
5061;DHT22;2549;52.128;21.068;2023-05-21T15:35:38;24.70;58.50
5061;DHT22;2549;52.128;21.068;2023-05-21T15:38:06;24.70;59.10
5061;DHT22;2549;52.128;21.068;2023-05-21T15:40:33;24.60;59.10
5061;DHT22;2549;52.128;21.068;2023-05-21T15:43:00;24.70;58.70
5061;DHT22;2549;52.128;21.068;2023-05-21T15:45:27;24.60;58.40
5061;DHT22;2549;52.128;21.068;2023-05-21T15:47:54;24.60;58.50
5061;DHT22;2549;52.128;21.068;2023-05-21T15:50:21;24.60;58.10
5061;DHT22;2549;52.128;21.068;2023-05-21T15:52:47;24.60;58.20
5061;DHT22;2549;52.128;21.068;2023-05-21T15:55:18;24.60;58.60
5061;DHT22;2549;52.128;21.068;2023-05-21T15:57:45;24.60;58.40
5061;DHT22;2549;52.128;21.068;2023-05-21T16:00:12;24.60;58.60
5061;DHT22;2549;52.128;21.068;2023-05-21T16:02:42;24.60;58.20
5061;DHT22;2549;52.128;21.068;2023-05-21T16:05:12;24.60;57.80
5061;DHT22;2549;52.128;21.068;2023-05-21T16:07:39;24.60;57.60
5061;DHT22;2549;52.128;21.068;2023-05-21T16:10:08;24.60;58.70
5061;DHT22;2549;52.128;21.068;2023-05-21T16:12:35;24.50;58.50